Time;durP1;ratioP1;P1;durP2;ratioP2;P2;SDS_P1;SDS_P2;PMS_P1;PMS_P2;Temp;Humidity;BMP_temperature;BMP_pressure;BME280_temperature;BME280_humidity;BME280_pressure;Samples;Min_cycle;Max_cycle;Signal;HPM_P1;HPM_P2
2021/12/12 00:02:27;;;;;;;2.30;2.08;;;;;;;;;;1822587;78;26426;-28
2021/12/12 00:04:51;;;;;;;2.12;2.00;;;;;;;;;;1798034;78;26385;-28
2021/12/12 00:07:23;;;;;;;2.37;2.17;;;;;;;;;;1819803;77;26228;-28
2021/12/12 00:09:52;;;;;;;3.08;2.20;;;;;;;;;;1827582;78;26273;-28
2021/12/12 00:12:27;;;;;;;2.30;2.20;;;;;;;;;;1800293;78;26283;-28
2021/12/12 00:14:55;;;;;;;3.33;2.25;;;;;;;;;;1799537;78;26277;-28
2021/12/12 00:17:24;;;;;;;2.95;2.22;;;;;;;;;;1812669;78;26289;-28
2021/12/12 00:19:51;;;;;;;2.80;2.17;;;;;;;;;;1830314;78;26330;-29
2021/12/12 00:22:20;;;;;;;2.37;2.22;;;;;;;;;;1815412;78;26282;-28
2021/12/12 00:24:47;;;;;;;1.90;1.80;;;;;;;;;;1819971;78;26283;-28
2021/12/12 00:27:15;;;;;;;2.40;2.05;;;;;;;;;;1810575;78;26284;-28
2021/12/12 00:29:42;;;;;;;2.55;2.17;;;;;;;;;;1810872;78;26242;-29
2021/12/12 00:32:11;;;;;;;3.00;2.30;;;;;;;;;;1829181;78;26695;-28
2021/12/12 00:34:40;;;;;;;2.87;1.95;;;;;;;;;;1818033;78;26301;-29
2021/12/12 00:37:08;;;;;;;2.20;2.10;;;;;;;;;;1815725;78;26330;-28
2021/12/12 00:39:37;;;;;;;2.37;2.27;;;;;;;;;;1810741;78;26715;-29
2021/12/12 00:42:06;;;;;;;3.00;2.33;;;;;;;;;;1811918;78;26393;-29
2021/12/12 00:44:33;;;;;;;2.30;2.10;;;;;;;;;;1811950;78;26361;-28
2021/12/12 00:47:02;;;;;;;2.30;2.10;;;;;;;;;;1825461;78;26266;-28
2021/12/12 00:49:31;;;;;;;2.30;2.10;;;;;;;;;;1793559;79;26352;-28
2021/12/12 00:51:58;;;;;;;2.67;2.12;;;;;;;;;;1794248;79;26748;-28
2021/12/12 00:54:31;;;;;;;2.22;2.12;;;;;;;;;;1804983;79;26368;-29
2021/12/12 00:56:55;;;;;;;2.12;1.82;;;;;;;;;;1805154;79;26377;-29
2021/12/12 00:59:23;;;;;;;2.20;2.10;;;;;;;;;;1793528;79;26719;-28
2021/12/12 01:01:51;;;;;;;1.98;1.87;;;;;;;;;;1812151;79;26335;-28
2021/12/12 01:04:20;;;;;;;3.27;2.05;;;;;;;;;;1810148;79;26292;-29
2021/12/12 01:06:49;;;;;;;2.10;2.00;;;;;;;;;;1801538;79;26292;-29
2021/12/12 01:09:19;;;;;;;2.12;2.02;;;;;;;;;;1807817;79;26272;-28
2021/12/12 01:11:48;;;;;;;2.12;2.02;;;;;;;;;;1798257;79;26845;-28
2021/12/12 01:14:17;;;;;;;2.10;2.00;;;;;;;;;;1791312;79;26670;-28
2021/12/12 01:16:46;;;;;;;1.98;1.87;;;;;;;;;;1797698;79;26263;-29
2021/12/12 01:19:14;;;;;;;2.10;2.00;;;;;;;;;;1802237;79;26292;-30
2021/12/12 01:21:43;;;;;;;2.22;2.12;;;;;;;;;;1803312;79;26288;-29
2021/12/12 01:24:12;;;;;;;1.95;1.85;;;;;;;;;;1794604;79;26388;-28
2021/12/12 01:26:40;;;;;;;2.02;1.92;;;;;;;;;;1794477;79;26288;-29
2021/12/12 01:29:08;;;;;;;2.00;1.90;;;;;;;;;;1800559;79;26312;-28
2021/12/12 01:31:39;;;;;;;2.30;2.20;;;;;;;;;;1797609;79;26723;-29
2021/12/12 01:34:11;;;;;;;2.25;2.12;;;;;;;;;;1806356;79;26292;-28
2021/12/12 01:36:49;;;;;;;2.00;1.90;;;;;;;;;;1798111;79;26653;-28
2021/12/12 01:39:12;;;;;;;2.22;2.12;;;;;;;;;;1801864;79;25748;-29
2021/12/12 01:41:41;;;;;;;2.00;1.90;;;;;;;;;;1813476;79;26264;-28
2021/12/12 01:44:19;;;;;;;2.08;1.98;;;;;;;;;;1799567;79;26287;-29
2021/12/12 01:46:48;;;;;;;2.20;2.10;;;;;;;;;;1791441;79;26377;-28
2021/12/12 01:49:17;;;;;;;1.72;1.72;;;;;;;;;;1794085;79;26414;-28
2021/12/12 01:51:45;;;;;;;2.17;2.08;;;;;;;;;;1796700;78;26307;-29
2021/12/12 01:54:13;;;;;;;2.10;2.00;;;;;;;;;;1811197;79;26765;-28
2021/12/12 01:56:43;;;;;;;2.12;2.02;;;;;;;;;;1807538;79;26744;-28
2021/12/12 01:59:12;;;;;;;1.75;1.75;;;;;;;;;;1809167;79;26299;-29
2021/12/12 02:01:44;;;;;;;2.05;1.92;;;;;;;;;;1796961;79;26252;-29
2021/12/12 02:04:12;;;;;;;2.05;1.95;;;;;;;;;;1793225;79;26398;-28
2021/12/12 02:06:41;;;;;;;2.12;2.02;;;;;;;;;;1792473;79;26310;-28
2021/12/12 02:09:10;;;;;;;1.70;1.70;;;;;;;;;;1802699;79;26235;-29
2021/12/12 02:11:39;;;;;;;2.10;2.00;;;;;;;;;;1792558;79;26331;-28
2021/12/12 02:14:10;;;;;;;2.02;1.92;;;;;;;;;;1794345;79;26369;-29
2021/12/12 02:16:38;;;;;;;1.90;1.80;;;;;;;;;;1794592;79;26360;-30
2021/12/12 02:19:05;;;;;;;2.20;2.10;;;;;;;;;;1802175;79;26307;-29
2021/12/12 02:21:45;;;;;;;2.00;1.90;;;;;;;;;;1801776;79;26282;-29
2021/12/12 02:35:15;;;;;;;2.05;1.95;;;;;;;;;;1794166;79;26296;-28
2021/12/12 02:37:35;;;;;;;2.35;2.25;;;;;;;;;;1796494;79;26233;-29
2021/12/12 02:40:03;;;;;;;2.10;2.00;;;;;;;;;;1800319;79;26336;-28
2021/12/12 02:42:31;;;;;;;2.20;2.10;;;;;;;;;;1813435;79;26292;-29
2021/12/12 02:45:01;;;;;;;1.70;1.70;;;;;;;;;;1797475;79;26784;-28
2021/12/12 02:47:34;;;;;;;2.10;2.00;;;;;;;;;;1800430;79;26283;-28
2021/12/12 02:50:13;;;;;;;1.80;1.80;;;;;;;;;;1812506;78;26363;-28
2021/12/12 02:52:38;;;;;;;2.02;1.92;;;;;;;;;;1809701;78;26324;-28
2021/12/12 02:55:07;;;;;;;1.92;1.90;;;;;;;;;;1812967;78;27151;-28
2021/12/12 02:57:35;;;;;;;1.98;1.87;;;;;;;;;;1819660;78;26319;-28
2021/12/12 03:00:04;;;;;;;2.12;1.70;;;;;;;;;;1822150;78;26293;-29
2021/12/12 03:02:39;;;;;;;2.15;2.05;;;;;;;;;;1815842;78;26337;-28
2021/12/12 03:05:04;;;;;;;1.90;1.87;;;;;;;;;;1812223;78;26395;-29
2021/12/12 03:07:30;;;;;;;1.85;1.75;;;;;;;;;;1819417;78;26865;-29
2021/12/12 03:09:59;;;;;;;2.00;1.90;;;;;;;;;;1819952;78;26403;-28
2021/12/12 03:12:33;;;;;;;1.90;1.80;;;;;;;;;;1801726;78;26310;-30
2021/12/12 03:15:02;;;;;;;2.10;2.00;;;;;;;;;;1817075;78;26303;-28
2021/12/12 03:17:29;;;;;;;2.17;2.08;;;;;;;;;;1809643;78;26285;-29
2021/12/12 03:19:58;;;;;;;1.90;1.80;;;;;;;;;;1814097;78;26809;-29
2021/12/12 03:22:26;;;;;;;1.90;1.80;;;;;;;;;;1814344;78;26661;-28
2021/12/12 03:24:54;;;;;;;1.85;1.75;;;;;;;;;;1806800;78;26316;-28
2021/12/12 03:27:21;;;;;;;1.77;1.72;;;;;;;;;;1814299;77;28103;-28
2021/12/12 03:29:50;;;;;;;2.00;1.90;;;;;;;;;;1822662;78;26263;-29
2021/12/12 03:32:18;;;;;;;1.82;1.72;;;;;;;;;;1821352;78;26345;-29
2021/12/12 03:34:47;;;;;;;1.98;1.87;;;;;;;;;;1820141;78;26864;-29
2021/12/12 03:37:16;;;;;;;2.10;2.00;;;;;;;;;;1814632;78;27009;-28
2021/12/12 03:39:45;;;;;;;2.08;1.98;;;;;;;;;;1810585;78;26640;-28
2021/12/12 03:42:14;;;;;;;2.00;1.90;;;;;;;;;;1825433;78;26232;-28
2021/12/12 03:44:41;;;;;;;1.72;1.72;;;;;;;;;;1808563;78;26359;-28
2021/12/12 03:47:10;;;;;;;1.87;1.85;;;;;;;;;;1815803;78;26309;-28
2021/12/12 03:49:38;;;;;;;1.87;1.77;;;;;;;;;;1808220;78;26465;-28
2021/12/12 03:52:07;;;;;;;2.12;2.02;;;;;;;;;;1784513;79;26353;-28
2021/12/12 03:54:35;;;;;;;2.12;2.02;;;;;;;;;;1798823;79;26747;-28
2021/12/12 03:57:04;;;;;;;1.65;1.65;;;;;;;;;;1782276;78;26271;-28
2021/12/12 03:59:32;;;;;;;1.82;1.72;;;;;;;;;;1767869;80;26376;-30
2021/12/12 04:01:59;;;;;;;1.67;1.67;;;;;;;;;;1791132;80;26772;-28
2021/12/12 04:04:28;;;;;;;2.08;1.98;;;;;;;;;;1771588;80;26413;-28
2021/12/12 04:06:56;;;;;;;1.98;1.87;;;;;;;;;;1770307;81;26392;-28
2021/12/12 04:09:24;;;;;;;1.50;1.50;;;;;;;;;;1793743;80;26826;-27
2021/12/12 04:11:53;;;;;;;1.70;1.70;;;;;;;;;;1784617;80;26372;-28
2021/12/12 04:14:21;;;;;;;1.70;1.70;;;;;;;;;;1792706;77;26426;-28
2021/12/12 04:16:50;;;;;;;1.98;1.90;;;;;;;;;;1794326;80;26342;-28
2021/12/12 04:19:17;;;;;;;1.80;1.70;;;;;;;;;;1775608;80;26316;-28
2021/12/12 04:21:45;;;;;;;1.70;1.70;;;;;;;;;;1770269;80;26328;-28
2021/12/12 04:24:14;;;;;;;1.52;1.52;;;;;;;;;;1768603;80;26385;-29
2021/12/12 04:26:42;;;;;;;2.00;1.90;;;;;;;;;;1777933;80;26298;-28
2021/12/12 04:29:14;;;;;;;1.80;1.70;;;;;;;;;;1768553;80;26689;-28
2021/12/12 04:31:43;;;;;;;1.80;1.70;;;;;;;;;;1765338;80;26316;-28
2021/12/12 04:34:10;;;;;;;1.80;1.70;;;;;;;;;;1786464;80;26409;-28
2021/12/12 04:36:39;;;;;;;1.60;1.60;;;;;;;;;;1791642;80;26302;-29
2021/12/12 04:39:08;;;;;;;1.72;1.72;;;;;;;;;;1772284;80;26345;-28
2021/12/12 04:41:36;;;;;;;1.72;1.72;;;;;;;;;;1776781;79;26766;-29
2021/12/12 04:44:05;;;;;;;1.60;1.60;;;;;;;;;;1776364;80;26291;-29
2021/12/12 04:49:54;;;;;;;1.72;1.72;;;;;;;;;;1778867;80;26758;-28
2021/12/12 04:51:56;;;;;;;1.60;1.60;;;;;;;;;;1834450;76;26871;-28
2021/12/12 04:54:31;;;;;;;1.72;1.57;;;;;;;;;;1812232;79;26302;-28
2021/12/12 04:57:03;;;;;;;1.55;1.55;;;;;;;;;;1833459;77;26281;-28
2021/12/12 04:59:38;;;;;;;1.60;1.60;;;;;;;;;;1810250;78;26837;-28
2021/12/12 05:02:15;;;;;;;1.60;1.60;;;;;;;;;;1769569;78;26361;-28
2021/12/12 05:04:59;;;;;;;1.65;1.57;;;;;;;;;;1838222;76;26755;-28
2021/12/12 05:07:28;;;;;;;1.60;1.60;;;;;;;;;;1812426;78;26331;-29
2021/12/12 05:10:00;;;;;;;1.52;1.52;;;;;;;;;;1833364;78;26277;-28
2021/12/12 05:12:31;;;;;;;1.70;1.60;;;;;;;;;;1819676;78;26277;-28
2021/12/12 05:15:00;;;;;;;1.45;1.45;;;;;;;;;;1821225;78;26351;-29
2021/12/12 05:17:41;;;;;;;1.75;1.50;;;;;;;;;;1817754;78;26811;-29
2021/12/12 05:20:10;;;;;;;1.75;1.70;;;;;;;;;;1846316;77;26291;-28
2021/12/12 05:22:39;;;;;;;1.60;1.50;;;;;;;;;;1814107;77;26285;-28
2021/12/12 05:25:08;;;;;;;1.60;1.60;;;;;;;;;;1819817;78;26290;-28
2021/12/12 05:27:36;;;;;;;1.72;1.70;;;;;;;;;;1800690;78;26335;-28
2021/12/12 05:30:13;;;;;;;1.50;1.50;;;;;;;;;;1851771;77;26272;-28
2021/12/12 05:32:41;;;;;;;1.50;1.50;;;;;;;;;;1854006;76;26569;-29
2021/12/12 05:35:10;;;;;;;1.50;1.50;;;;;;;;;;1853728;77;26256;-28
2021/12/12 05:37:38;;;;;;;1.42;1.42;;;;;;;;;;1841632;77;26211;-28
2021/12/12 05:40:08;;;;;;;1.70;1.60;;;;;;;;;;1834704;77;26267;-29
2021/12/12 05:42:36;;;;;;;1.87;1.47;;;;;;;;;;1823822;78;26208;-27
2021/12/12 05:45:05;;;;;;;1.45;1.45;;;;;;;;;;1812329;78;26294;-28
2021/12/12 05:47:32;;;;;;;1.95;1.45;;;;;;;;;;1846292;77;26261;-29
2021/12/12 05:50:01;;;;;;;1.40;1.40;;;;;;;;;;1841583;77;26866;-28
2021/12/12 05:52:29;;;;;;;1.40;1.40;;;;;;;;;;1829732;78;26801;-28
2021/12/12 05:54:56;;;;;;;1.67;1.60;;;;;;;;;;1802804;78;26283;-27
2021/12/12 05:57:26;;;;;;;1.62;1.52;;;;;;;;;;1824000;78;26376;-28
2021/12/12 05:59:55;;;;;;;1.52;1.52;;;;;;;;;;1813683;78;26315;-29
2021/12/12 06:02:23;;;;;;;1.30;1.30;;;;;;;;;;1830933;77;26257;-28
2021/12/12 06:04:51;;;;;;;1.50;1.50;;;;;;;;;;1841951;77;26407;-29
2021/12/12 06:07:19;;;;;;;2.15;1.42;;;;;;;;;;1813154;78;26313;-29
2021/12/12 06:09:48;;;;;;;1.70;1.60;;;;;;;;;;1803763;78;26283;-29
2021/12/12 06:12:17;;;;;;;1.50;1.50;;;;;;;;;;1828303;77;26664;-29
2021/12/12 06:14:45;;;;;;;1.62;1.62;;;;;;;;;;1830788;77;26290;-28
2021/12/12 06:17:13;;;;;;;1.80;1.70;;;;;;;;;;1845283;77;26277;-28
2021/12/12 06:19:41;;;;;;;1.50;1.50;;;;;;;;;;1826482;77;26400;-29
2021/12/12 06:22:09;;;;;;;1.65;1.57;;;;;;;;;;1815417;78;26267;-29
2021/12/12 06:24:38;;;;;;;1.47;1.47;;;;;;;;;;1849045;77;26346;-28
2021/12/12 06:27:06;;;;;;;1.67;1.57;;;;;;;;;;1814449;77;26304;-29
2021/12/12 06:29:34;;;;;;;1.60;1.60;;;;;;;;;;1821686;77;26279;-29
2021/12/12 06:32:02;;;;;;;1.40;1.40;;;;;;;;;;1817614;78;26314;-28
2021/12/12 06:34:29;;;;;;;1.65;1.50;;;;;;;;;;1830294;77;26257;-30
2021/12/12 06:36:57;;;;;;;1.75;1.60;;;;;;;;;;1826930;77;26271;-28
2021/12/12 06:39:26;;;;;;;3.27;1.60;;;;;;;;;;1848880;77;26939;-29
2021/12/12 06:41:54;;;;;;;3.10;1.55;;;;;;;;;;1818659;77;26339;-28
2021/12/12 06:44:22;;;;;;;3.40;1.60;;;;;;;;;;1850067;77;26274;-28
2021/12/12 06:46:51;;;;;;;3.30;1.52;;;;;;;;;;1839022;77;26134;-28
2021/12/12 06:49:18;;;;;;;1.60;1.50;;;;;;;;;;1852246;76;26442;-28
2021/12/12 06:51:50;;;;;;;1.67;1.57;;;;;;;;;;1813473;78;25992;-28
2021/12/12 06:54:19;;;;;;;1.57;1.47;;;;;;;;;;1840417;77;26202;-27
2021/12/12 06:56:48;;;;;;;1.50;1.50;;;;;;;;;;1825048;78;26214;-28
2021/12/12 06:59:16;;;;;;;3.62;1.40;;;;;;;;;;1846067;77;26380;-27
2021/12/12 07:01:44;;;;;;;1.75;1.65;;;;;;;;;;1836704;77;26269;-28
2021/12/12 07:04:13;;;;;;;1.30;1.30;;;;;;;;;;1832647;77;26913;-29
2021/12/12 07:06:40;;;;;;;1.50;1.40;;;;;;;;;;1817473;79;27282;-28
2021/12/12 07:09:09;;;;;;;3.62;1.57;;;;;;;;;;1820530;77;26373;-27
2021/12/12 07:11:38;;;;;;;2.67;1.50;;;;;;;;;;1817925;77;26774;-28
2021/12/12 07:14:06;;;;;;;1.50;1.42;;;;;;;;;;1814619;77;26349;-27
2021/12/12 07:16:34;;;;;;;2.05;1.25;;;;;;;;;;1818683;78;26272;-28
2021/12/12 07:19:02;;;;;;;4.40;1.62;;;;;;;;;;1803183;79;26284;-28
2021/12/12 07:21:30;;;;;;;1.80;1.40;;;;;;;;;;1815239;79;26267;-28
2021/12/12 07:23:59;;;;;;;2.50;1.60;;;;;;;;;;1843479;77;26378;-29
2021/12/12 07:26:27;;;;;;;2.35;1.70;;;;;;;;;;1821174;79;26780;-28
2021/12/12 07:28:55;;;;;;;11.18;1.70;;;;;;;;;;1821299;77;26267;-28
2021/12/12 07:31:24;;;;;;;2.47;1.40;;;;;;;;;;1800265;79;26725;-27
2021/12/12 07:33:53;;;;;;;2.55;1.60;;;;;;;;;;1821139;77;26334;-28
2021/12/12 07:36:21;;;;;;;17.87;3.45;;;;;;;;;;1816970;79;26369;-28
2021/12/12 07:38:50;;;;;;;3.40;1.80;;;;;;;;;;1819256;77;26315;-29
2021/12/12 07:41:19;;;;;;;2.45;1.70;;;;;;;;;;1843093;77;26314;-27
2021/12/12 07:43:46;;;;;;;4.37;1.80;;;;;;;;;;1842735;77;26217;-29
2021/12/12 07:46:14;;;;;;;7.90;1.95;;;;;;;;;;1830494;77;28317;-28
2021/12/12 07:48:43;;;;;;;5.17;1.90;;;;;;;;;;1842145;77;26264;-29
2021/12/12 07:51:10;;;;;;;20.02;2.30;;;;;;;;;;1830713;77;26391;-27
2021/12/12 07:53:38;;;;;;;3.25;1.80;;;;;;;;;;1859456;76;26462;-27
2021/12/12 07:56:06;;;;;;;4.55;1.90;;;;;;;;;;1853471;76;26360;-27
2021/12/12 07:58:35;;;;;;;3.77;2.47;;;;;;;;;;1846528;76;26263;-28
2021/12/12 08:01:03;;;;;;;4.08;2.47;;;;;;;;;;1846938;76;26328;-26
2021/12/12 08:03:32;;;;;;;5.70;3.15;;;;;;;;;;1839046;76;26730;-27
2021/12/12 08:06:00;;;;;;;6.50;3.08;;;;;;;;;;1843379;77;26800;-27
2021/12/12 08:08:28;;;;;;;6.67;3.33;;;;;;;;;;1854352;77;26740;-26
2021/12/12 08:10:57;;;;;;;5.75;3.37;;;;;;;;;;1860060;77;26690;-30
2021/12/12 08:13:25;;;;;;;4.65;3.02;;;;;;;;;;1847423;77;26311;-26
2021/12/12 08:15:53;;;;;;;4.58;3.27;;;;;;;;;;1853136;76;26296;-27
2021/12/12 08:18:21;;;;;;;4.25;3.00;;;;;;;;;;1862284;76;26813;-28
2021/12/12 08:20:50;;;;;;;4.65;3.15;;;;;;;;;;1844553;76;26250;-27
2021/12/12 08:23:18;;;;;;;3.50;2.95;;;;;;;;;;1843102;76;26254;-27
2021/12/12 08:25:47;;;;;;;3.92;2.92;;;;;;;;;;1863446;77;26361;-29
2021/12/12 08:28:15;;;;;;;6.80;3.62;;;;;;;;;;1841332;77;26911;-28
2021/12/12 08:30:43;;;;;;;3.02;2.72;;;;;;;;;;1861502;76;26319;-28
2021/12/12 08:33:11;;;;;;;3.30;3.00;;;;;;;;;;1857088;77;26289;-28
2021/12/12 08:35:40;;;;;;;3.27;2.95;;;;;;;;;;1846821;76;26378;-27
2021/12/12 08:38:09;;;;;;;4.30;2.98;;;;;;;;;;1842494;77;26258;-28
2021/12/12 08:40:38;;;;;;;9.13;2.98;;;;;;;;;;1848639;77;26335;-27
2021/12/12 08:43:12;;;;;;;3.15;2.65;;;;;;;;;;1841601;77;26269;-27
2021/12/12 08:45:39;;;;;;;2.98;2.67;;;;;;;;;;1855031;76;26302;-26
2021/12/12 08:48:07;;;;;;;2.77;2.50;;;;;;;;;;1855955;76;26264;-29
2021/12/12 08:50:35;;;;;;;3.12;2.77;;;;;;;;;;1846482;76;26388;-27
2021/12/12 08:53:04;;;;;;;3.00;2.58;;;;;;;;;;1839551;76;26751;-28
2021/12/12 08:55:35;;;;;;;3.98;2.45;;;;;;;;;;1850005;76;26296;-30
2021/12/12 08:58:14;;;;;;;3.00;2.42;;;;;;;;;;1844670;77;26324;-28
2021/12/12 09:00:34;;;;;;;2.25;2.15;;;;;;;;;;1853584;76;26257;-28
2021/12/12 09:03:01;;;;;;;2.70;2.50;;;;;;;;;;1851951;77;28175;-27
2021/12/12 09:05:33;;;;;;;2.35;2.15;;;;;;;;;;1862861;77;26301;-29
2021/12/12 09:08:02;;;;;;;3.65;2.25;;;;;;;;;;1858506;76;26265;-28
2021/12/12 09:10:31;;;;;;;2.67;2.20;;;;;;;;;;1843107;77;26630;-29
2021/12/12 09:13:04;;;;;;;2.12;2.02;;;;;;;;;;1842721;77;26250;-28
2021/12/12 09:15:33;;;;;;;3.95;2.17;;;;;;;;;;1848171;75;26262;-29
2021/12/12 09:18:02;;;;;;;3.20;1.80;;;;;;;;;;1860641;76;26312;-29
2021/12/12 09:20:36;;;;;;;2.52;1.85;;;;;;;;;;1851041;77;25713;-30
2021/12/12 09:23:06;;;;;;;2.15;1.90;;;;;;;;;;1858626;75;26307;-29
2021/12/12 09:25:37;;;;;;;3.70;2.20;;;;;;;;;;1852040;76;28687;-27
2021/12/12 09:28:22;;;;;;;2.00;1.90;;;;;;;;;;1855199;76;26335;-32
2021/12/12 09:30:50;;;;;;;2.65;2.10;;;;;;;;;;1859709;77;26251;-32
2021/12/12 09:33:20;;;;;;;2.00;1.90;;;;;;;;;;1860009;76;26282;-33
2021/12/12 09:35:49;;;;;;;4.17;1.77;;;;;;;;;;1856793;76;26282;-32
2021/12/12 09:38:18;;;;;;;2.20;2.10;;;;;;;;;;1855995;77;26829;-32
2021/12/12 09:40:46;;;;;;;2.10;2.00;;;;;;;;;;1860056;76;26788;-32
2021/12/12 09:43:20;;;;;;;2.37;2.20;;;;;;;;;;1863731;76;26239;-32
2021/12/12 09:46:01;;;;;;;2.25;2.15;;;;;;;;;;1859082;77;27214;-32
2021/12/12 09:51:25;;;;;;;2.50;2.08;;;;;;;;;;1847082;76;26536;-32
2021/12/12 09:54:06;;;;;;;2.30;2.08;;;;;;;;;;1876171;74;26316;-32
2021/12/12 09:56:51;;;;;;;2.50;2.30;;;;;;;;;;1873083;76;26747;-32
2021/12/12 09:59:21;;;;;;;2.80;2.33;;;;;;;;;;1881937;76;26745;-32
2021/12/12 10:01:52;;;;;;;4.28;2.83;;;;;;;;;;1881933;76;26334;-32
2021/12/12 10:04:24;;;;;;;5.08;3.20;;;;;;;;;;1883633;76;26347;-32
2021/12/12 10:07:09;;;;;;;7.90;3.10;;;;;;;;;;1879815;76;26662;-32
2021/12/12 10:09:38;;;;;;;4.97;3.35;;;;;;;;;;1872143;76;26291;-32
2021/12/12 10:12:13;;;;;;;6.42;3.30;;;;;;;;;;1876684;74;26265;-32
2021/12/12 10:15:01;;;;;;;8.43;3.58;;;;;;;;;;1862598;76;26307;-32
2021/12/12 10:17:35;;;;;;;7.03;3.60;;;;;;;;;;1890405;76;26757;-32
2021/12/12 10:20:07;;;;;;;6.47;3.58;;;;;;;;;;1877995;76;26767;-32
2021/12/12 10:22:42;;;;;;;7.58;3.37;;;;;;;;;;1871736;76;26341;-32
2021/12/12 10:25:14;;;;;;;7.87;3.80;;;;;;;;;;1876538;76;26259;-32
2021/12/12 10:27:55;;;;;;;7.47;3.70;;;;;;;;;;1871370;75;26309;-32
2021/12/12 10:30:30;;;;;;;9.60;4.28;;;;;;;;;;1817128;76;26273;-32
2021/12/12 10:32:59;;;;;;;10.18;3.92;;;;;;;;;;1874252;76;26269;-32
2021/12/12 10:35:30;;;;;;;5.55;3.52;;;;;;;;;;1862847;76;26281;-32
2021/12/12 10:37:59;;;;;;;5.03;3.60;;;;;;;;;;1877441;76;26331;-33
2021/12/12 10:40:28;;;;;;;7.72;4.10;;;;;;;;;;1871470;76;26280;-32
2021/12/12 10:42:57;;;;;;;8.78;3.67;;;;;;;;;;1882901;76;26245;-32
2021/12/12 10:45:29;;;;;;;6.28;3.62;;;;;;;;;;1873638;74;26261;-32
2021/12/12 10:48:00;;;;;;;9.80;3.87;;;;;;;;;;1878460;76;26315;-32
2021/12/12 10:50:38;;;;;;;5.58;3.50;;;;;;;;;;1881836;76;26233;-32
2021/12/12 10:53:07;;;;;;;5.55;3.52;;;;;;;;;;1858638;76;26245;-32
2021/12/12 10:55:54;;;;;;;4.80;3.55;;;;;;;;;;1854821;77;26203;-32
2021/12/12 10:58:26;;;;;;;6.30;3.08;;;;;;;;;;1865504;76;26881;-32
2021/12/12 11:00:55;;;;;;;5.15;3.42;;;;;;;;;;1855038;77;26323;-32
2021/12/12 11:03:30;;;;;;;6.00;3.20;;;;;;;;;;1849009;75;26382;-32
2021/12/12 11:06:02;;;;;;;3.72;2.83;;;;;;;;;;1861380;76;26274;-32
2021/12/12 11:08:34;;;;;;;4.78;2.98;;;;;;;;;;1858108;77;26766;-32
2021/12/12 11:11:02;;;;;;;4.65;2.95;;;;;;;;;;1861901;75;26266;-32
2021/12/12 11:13:31;;;;;;;3.58;2.67;;;;;;;;;;1853812;75;26266;-32
2021/12/12 11:15:59;;;;;;;4.75;3.15;;;;;;;;;;1851677;77;26273;-32
2021/12/12 11:18:31;;;;;;;3.47;2.90;;;;;;;;;;1855990;76;26758;-32
2021/12/12 11:21:12;;;;;;;3.65;2.83;;;;;;;;;;1852002;76;26323;-32
2021/12/12 11:23:41;;;;;;;4.08;2.92;;;;;;;;;;1781905;77;26749;-32
2021/12/12 11:26:09;;;;;;;4.33;2.85;;;;;;;;;;1843528;77;26770;-32
2021/12/12 11:28:46;;;;;;;3.25;2.30;;;;;;;;;;1849387;75;27298;-32
2021/12/12 11:31:24;;;;;;;3.20;2.70;;;;;;;;;;1846180;75;26323;-32
2021/12/12 11:33:53;;;;;;;3.50;2.62;;;;;;;;;;1852610;75;26926;-32
2021/12/12 11:36:22;;;;;;;2.80;2.50;;;;;;;;;;1848410;75;26355;-32
2021/12/12 11:38:53;;;;;;;4.62;2.70;;;;;;;;;;1850704;77;26839;-32
2021/12/12 11:41:25;;;;;;;3.52;2.50;;;;;;;;;;1858979;77;26262;-32
2021/12/12 11:43:56;;;;;;;2.37;2.25;;;;;;;;;;1851853;76;26222;-32
2021/12/12 11:46:31;;;;;;;2.40;2.20;;;;;;;;;;1858098;76;26323;-32
2021/12/12 11:49:03;;;;;;;2.50;2.30;;;;;;;;;;1854523;77;26678;-32
2021/12/12 11:51:32;;;;;;;2.45;2.17;;;;;;;;;;1855872;76;26816;-32
2021/12/12 11:54:03;;;;;;;2.47;2.25;;;;;;;;;;1854871;76;26786;-32
2021/12/12 11:56:32;;;;;;;2.35;2.17;;;;;;;;;;1841636;76;26811;-32
2021/12/12 11:59:12;;;;;;;2.33;2.12;;;;;;;;;;1854908;76;26782;-32
2021/12/12 12:01:40;;;;;;;2.30;2.10;;;;;;;;;;1850346;77;26336;-32
2021/12/12 12:04:09;;;;;;;2.22;2.02;;;;;;;;;;1857634;77;26316;-32
2021/12/12 12:06:55;;;;;;;3.50;1.98;;;;;;;;;;1851396;77;26290;-32
2021/12/12 12:09:32;;;;;;;2.22;2.10;;;;;;;;;;1853013;77;26277;-32
2021/12/12 12:12:08;;;;;;;2.50;2.10;;;;;;;;;;1837185;77;26724;-32
2021/12/12 12:14:37;;;;;;;2.00;1.90;;;;;;;;;;1793221;79;26360;-31
2021/12/12 12:17:08;;;;;;;2.20;2.10;;;;;;;;;;1844411;77;26386;-31
2021/12/12 12:19:37;;;;;;;1.92;1.82;;;;;;;;;;1865830;77;26254;-31
2021/12/12 12:22:10;;;;;;;1.90;1.80;;;;;;;;;;1858084;76;26296;-32
2021/12/12 12:25:14;;;;;;;1.87;1.77;;;;;;;;;;1857170;76;26289;-31
2021/12/12 12:27:28;;;;;;;2.17;1.90;;;;;;;;;;1846731;76;26277;-32
2021/12/12 12:30:15;;;;;;;1.98;1.87;;;;;;;;;;1859466;76;26277;-32
2021/12/12 12:33:00;;;;;;;2.10;1.90;;;;;;;;;;1856777;77;26768;-32
2021/12/12 12:35:45;;;;;;;1.77;1.67;;;;;;;;;;1842095;76;26732;-32
2021/12/12 12:38:31;;;;;;;1.75;1.65;;;;;;;;;;1851869;77;26319;-33
2021/12/12 12:41:16;;;;;;;1.65;1.55;;;;;;;;;;1840871;75;26254;-32
2021/12/12 12:43:54;;;;;;;1.70;1.60;;;;;;;;;;1859404;77;26360;-32
2021/12/12 12:46:38;;;;;;;2.10;2.00;;;;;;;;;;1841762;76;26282;-32
2021/12/12 12:49:24;;;;;;;1.77;1.67;;;;;;;;;;1835243;76;26323;-32
2021/12/12 12:52:07;;;;;;;1.42;1.42;;;;;;;;;;1863166;75;26800;-31
2021/12/12 12:54:45;;;;;;;1.65;1.55;;;;;;;;;;1875872;75;26673;-31
2021/12/12 12:57:23;;;;;;;1.55;1.45;;;;;;;;;;1881088;75;26323;-32
2021/12/12 12:59:54;;;;;;;1.72;1.62;;;;;;;;;;1891466;75;26755;-32
2021/12/12 13:02:22;;;;;;;1.42;1.37;;;;;;;;;;1880695;75;26375;-32
2021/12/12 13:05:00;;;;;;;1.77;1.67;;;;;;;;;;1831602;75;26814;-32
2021/12/12 13:07:45;;;;;;;1.67;1.57;;;;;;;;;;1873016;75;26275;-32
2021/12/12 13:10:17;;;;;;;1.80;1.70;;;;;;;;;;1886310;74;26854;-31
2021/12/12 13:12:49;;;;;;;1.85;1.75;;;;;;;;;;1868977;75;26217;-32
2021/12/12 13:15:18;;;;;;;1.57;1.47;;;;;;;;;;1891656;74;26811;-32
2021/12/12 13:17:46;;;;;;;1.65;1.57;;;;;;;;;;1863608;74;26709;-32
2021/12/12 13:20:30;;;;;;;1.70;1.60;;;;;;;;;;1881959;75;26741;-32
2021/12/12 13:23:16;;;;;;;2.00;1.90;;;;;;;;;;1833911;77;26726;-32
2021/12/12 13:25:47;;;;;;;1.62;1.60;;;;;;;;;;1875233;74;26468;-32
2021/12/12 13:28:18;;;;;;;1.90;1.80;;;;;;;;;;1880021;74;26760;-32
2021/12/12 13:30:50;;;;;;;1.72;1.62;;;;;;;;;;1890427;74;26394;-32
2021/12/12 13:33:19;;;;;;;1.98;1.87;;;;;;;;;;1863406;75;26289;-32
2021/12/12 13:35:48;;;;;;;2.00;1.90;;;;;;;;;;1881589;75;26364;-32
2021/12/12 13:38:16;;;;;;;1.90;1.80;;;;;;;;;;1870509;75;26368;-32
2021/12/12 13:40:45;;;;;;;1.62;1.62;;;;;;;;;;1881438;75;26736;-32
2021/12/12 13:43:20;;;;;;;1.50;1.50;;;;;;;;;;1874698;75;26272;-32
2021/12/12 13:46:05;;;;;;;1.75;1.65;;;;;;;;;;1874470;75;26339;-32
2021/12/12 13:48:34;;;;;;;1.50;1.50;;;;;;;;;;1872883;75;26819;-32
2021/12/12 13:51:06;;;;;;;1.80;1.70;;;;;;;;;;1889761;75;26720;-32
2021/12/12 13:53:51;;;;;;;1.70;1.70;;;;;;;;;;1873596;75;26343;-32
2021/12/12 13:56:20;;;;;;;1.95;1.85;;;;;;;;;;1850566;75;26342;-32
2021/12/12 13:58:54;;;;;;;1.65;1.65;;;;;;;;;;1860260;77;26319;-32
2021/12/12 14:01:23;;;;;;;1.82;1.72;;;;;;;;;;1867425;77;26266;-32
2021/12/12 14:03:52;;;;;;;1.90;1.80;;;;;;;;;;1841280;75;26767;-32
2021/12/12 14:06:21;;;;;;;1.72;1.70;;;;;;;;;;1846533;77;26747;-32
2021/12/12 14:08:53;;;;;;;1.75;1.65;;;;;;;;;;1847683;75;26745;-32
2021/12/12 14:11:26;;;;;;;1.40;1.40;;;;;;;;;;1840842;77;26331;-32
2021/12/12 14:13:55;;;;;;;1.60;1.60;;;;;;;;;;1839024;75;26342;-32
2021/12/12 14:16:27;;;;;;;1.60;1.60;;;;;;;;;;1851854;75;26683;-32
2021/12/12 14:19:05;;;;;;;1.85;1.75;;;;;;;;;;1854775;75;26261;-32
2021/12/12 14:21:32;;;;;;;1.90;1.80;;;;;;;;;;1848946;77;26248;-32
2021/12/12 14:24:00;;;;;;;1.57;1.57;;;;;;;;;;1840089;77;26225;-32
2021/12/12 14:26:29;;;;;;;1.70;1.70;;;;;;;;;;1868390;75;26274;-32
2021/12/12 14:28:58;;;;;;;1.77;1.67;;;;;;;;;;1854882;74;26268;-32
2021/12/12 14:31:33;;;;;;;2.00;1.90;;;;;;;;;;1850473;75;26308;-32
2021/12/12 14:34:02;;;;;;;1.85;1.75;;;;;;;;;;1866772;77;26308;-32
2021/12/12 14:36:31;;;;;;;1.70;1.70;;;;;;;;;;1852634;76;26280;-32
2021/12/12 14:38:59;;;;;;;1.47;1.47;;;;;;;;;;1853651;76;26339;-32
2021/12/12 14:41:32;;;;;;;1.50;1.50;;;;;;;;;;1841659;75;26838;-32
2021/12/12 14:43:58;;;;;;;1.80;1.70;;;;;;;;;;1844517;77;26328;-32
2021/12/12 14:46:36;;;;;;;1.75;1.65;;;;;;;;;;1862706;77;26343;-32
2021/12/12 14:49:11;;;;;;;2.00;1.90;;;;;;;;;;1847707;77;26751;-32
2021/12/12 14:51:40;;;;;;;1.90;1.80;;;;;;;;;;1839670;75;26295;-32
2021/12/12 14:54:09;;;;;;;1.92;1.82;;;;;;;;;;1849829;75;26413;-32
2021/12/12 14:56:38;;;;;;;1.90;1.80;;;;;;;;;;1843657;76;26248;-32
2021/12/12 14:59:06;;;;;;;1.60;1.60;;;;;;;;;;1849516;76;26355;-32
2021/12/12 15:01:38;;;;;;;1.80;1.70;;;;;;;;;;1854253;76;26297;-32
2021/12/12 15:04:07;;;;;;;1.50;1.50;;;;;;;;;;1857146;76;26301;-32
2021/12/12 15:06:37;;;;;;;1.40;1.40;;;;;;;;;;1852543;76;26324;-32
2021/12/12 15:09:08;;;;;;;1.90;1.80;;;;;;;;;;1863320;76;26301;-32
2021/12/12 15:11:38;;;;;;;1.60;1.60;;;;;;;;;;1855551;76;26288;-32
2021/12/12 15:14:07;;;;;;;1.62;1.52;;;;;;;;;;1854285;76;26223;-32
2021/12/12 15:16:36;;;;;;;1.60;1.60;;;;;;;;;;1860882;76;26339;-32
2021/12/12 15:19:08;;;;;;;1.82;1.72;;;;;;;;;;1855720;76;26799;-32
2021/12/12 15:21:36;;;;;;;1.55;1.55;;;;;;;;;;1846564;76;26312;-32